Time;durP1;ratioP1;P1;durP2;ratioP2;P2;SDS_P1;SDS_P2;PMS_P1;PMS_P2;Temp;Humidity;BMP_temperature;BMP_pressure;BME280_temperature;BME280_humidity;BME280_pressure;Samples;Min_cycle;Max_cycle;Signal;HPM_P1;HPM_P2
2022/04/16 00:00:56;;;;;;;11.07;6.22;;;;;;;7.76;75.46;99379.75;4845607;29;20156;-78
2022/04/16 00:03:23;;;;;;;9.65;6.60;;;;;;;7.72;75.72;99388.38;4855586;29;20053;-78
2022/04/16 00:05:53;;;;;;;10.02;6.72;;;;;;;7.71;75.92;99391.84;4860387;29;20054;-79
2022/04/16 00:08:21;;;;;;;12.45;7.50;;;;;;;7.75;76.49;99394.47;4863353;29;20050;-79
2022/04/16 00:10:49;;;;;;;10.32;7.35;;;;;;;7.89;76.17;99386.75;4862459;29;20061;-78
2022/04/16 00:13:18;;;;;;;13.00;6.90;;;;;;;8.04;75.98;99377.31;4863526;29;20140;-79
2022/04/16 00:15:55;;;;;;;10.68;7.32;;;;;;;8.11;75.87;99379.09;4884364;29;20086;-79
2022/04/16 00:18:23;;;;;;;14.18;7.70;;;;;;;7.97;75.27;99372.09;4880902;29;20061;-78
2022/04/16 00:20:51;;;;;;;11.05;6.68;;;;;;;7.85;75.77;99377.22;4881897;29;20053;-77
2022/04/16 00:23:20;;;;;;;11.60;6.80;;;;;;;7.75;76.38;99373.69;4862387;29;20062;-78
2022/04/16 00:25:48;;;;;;;12.70;7.13;;;;;;;7.63;76.26;99378.78;4862475;29;20061;-79
2022/04/16 00:28:15;;;;;;;11.48;7.07;;;;;;;7.61;76.76;99369.25;4862150;29;20057;-77
2022/04/16 00:30:42;;;;;;;14.77;7.53;;;;;;;7.56;76.91;99370.06;4863288;29;20109;-80
2022/04/16 00:33:12;;;;;;;13.68;7.35;;;;;;;7.73;77.17;99371.94;4860465;29;20473;-79
2022/04/16 00:35:43;;;;;;;11.43;7.25;;;;;;;7.91;76.84;99368.56;4860926;29;20057;-79
2022/04/16 00:38:11;;;;;;;11.57;7.63;;;;;;;7.93;76.33;99366.84;4862714;29;20049;-79
2022/04/16 00:40:39;;;;;;;11.50;7.45;;;;;;;7.95;76.58;99353.00;4845195;29;20080;-80
2022/04/16 00:43:06;;;;;;;11.95;7.82;;;;;;;8.16;76.60;99364.41;4861909;29;20618;-80
2022/04/16 00:45:34;;;;;;;13.15;8.48;;;;;;;8.16;76.81;99357.44;4862234;29;20065;-79
2022/04/16 00:48:01;;;;;;;16.45;8.25;;;;;;;8.21;76.02;99365.28;4860202;29;20089;-80
2022/04/16 00:50:28;;;;;;;13.15;8.45;;;;;;;8.30;76.15;99377.47;4879898;29;20061;-80
2022/04/16 00:52:56;;;;;;;12.43;8.32;;;;;;;8.34;76.85;99374.88;4863196;29;20067;-79
2022/04/16 00:55:24;;;;;;;13.95;8.55;;;;;;;8.38;76.05;99354.94;4861114;29;20061;-80
2022/04/16 00:57:51;;;;;;;14.10;8.25;;;;;;;8.39;75.68;99370.56;4860593;29;20061;-78
2022/04/16 01:00:18;;;;;;;15.95;9.57;;;;;;;8.31;75.26;99358.41;4859931;29;20059;-79
2022/04/16 01:02:46;;;;;;;14.57;9.50;;;;;;;8.32;75.84;99358.38;4861376;29;20468;-79
2022/04/16 01:05:14;;;;;;;14.57;8.80;;;;;;;8.31;76.73;99353.19;4860516;29;20113;-78
2022/04/16 01:07:53;;;;;;;14.23;8.82;;;;;;;8.48;76.47;99366.31;4861148;29;20057;-79
2022/04/16 01:10:21;;;;;;;15.27;8.75;;;;;;;8.57;75.48;99366.34;4861013;29;20504;-78
2022/04/16 01:12:48;;;;;;;17.55;8.60;;;;;;;8.57;75.42;99371.53;4860851;29;20121;-80
2022/04/16 01:15:17;;;;;;;15.80;9.32;;;;;;;8.36;75.79;99318.50;4859621;29;20053;-78
2022/04/16 01:17:44;;;;;;;15.27;9.32;;;;;;;8.66;75.56;99363.75;4861608;29;20076;-79
2022/04/16 01:20:11;;;;;;;15.10;9.27;;;;;;;8.70;75.31;99355.09;4830570;29;20536;-78
2022/04/16 01:22:40;;;;;;;14.38;9.18;;;;;;;8.52;75.46;99332.47;4862468;29;20061;-79
2022/04/16 01:25:07;;;;;;;13.70;9.63;;;;;;;8.55;75.09;99350.69;4862481;29;20065;-79
2022/04/16 01:27:36;;;;;;;17.35;9.43;;;;;;;8.55;75.62;99368.06;4862437;29;20049;-78
2022/04/16 01:30:04;;;;;;;16.55;9.48;;;;;;;8.55;75.86;99363.72;4862329;29;20110;-78
2022/04/16 01:32:34;;;;;;;14.50;10.35;;;;;;;8.64;76.00;99360.28;4862390;29;20494;-78
2022/04/16 01:35:01;;;;;;;15.57;11.00;;;;;;;8.61;75.25;99358.53;4861611;29;20077;-79
2022/04/16 01:37:33;;;;;;;16.17;10.88;;;;;;;8.54;75.23;99363.72;4860297;29;20063;-78
2022/04/16 01:40:01;;;;;;;17.83;12.10;;;;;;;8.30;75.95;99347.13;4859699;29;20077;-78
2022/04/16 01:42:29;;;;;;;16.52;11.25;;;;;;;8.31;76.94;99355.78;4861233;29;20058;-78
2022/04/16 01:44:57;;;;;;;16.55;11.07;;;;;;;8.43;76.32;99366.28;4860240;29;20521;-78
2022/04/16 01:47:24;;;;;;;17.38;12.02;;;;;;;8.39;75.70;99352.34;4861240;29;20062;-78
2022/04/16 01:49:52;;;;;;;18.30;12.65;;;;;;;8.39;75.48;99360.16;4860540;29;20152;-78
2022/04/16 01:52:19;;;;;;;19.42;12.63;;;;;;;8.44;75.76;99359.34;4860555;29;20057;-79
2022/04/16 01:54:46;;;;;;;20.92;13.75;;;;;;;8.45;75.54;99359.34;4859868;29;20549;-77
2022/04/16 01:57:13;;;;;;;19.05;13.10;;;;;;;8.47;75.79;99369.75;4860845;29;20074;-78
2022/04/16 01:59:40;;;;;;;17.95;12.13;;;;;;;8.18;75.27;99358.34;4859012;29;20085;-79
2022/04/16 02:02:07;;;;;;;17.02;12.07;;;;;;;7.92;76.26;99354.72;4861008;29;20061;-79
2022/04/16 02:04:35;;;;;;;16.58;12.00;;;;;;;7.74;77.00;99350.25;4861217;29;20057;-80
2022/04/16 02:07:02;;;;;;;17.35;12.50;;;;;;;7.55;77.13;99328.47;4859875;29;20053;-78
2022/04/16 02:09:29;;;;;;;16.17;11.50;;;;;;;7.47;77.19;99330.16;4862010;29;20538;-82
2022/04/16 02:11:56;;;;;;;16.75;12.30;;;;;;;7.59;77.99;99358.81;4864324;29;20061;-79
2022/04/16 02:14:24;;;;;;;16.25;11.50;;;;;;;7.46;76.89;99357.00;4864191;29;20053;-79
2022/04/16 02:16:51;;;;;;;17.23;11.88;;;;;;;7.39;77.67;99356.06;4864010;29;20404;-78
2022/04/16 02:19:18;;;;;;;18.92;12.60;;;;;;;7.39;78.31;99363.88;4847340;29;20468;-79
2022/04/16 02:21:45;;;;;;;16.27;11.77;;;;;;;7.35;77.88;99355.16;4864990;29;20062;-76
2022/04/16 02:24:13;;;;;;;15.60;11.40;;;;;;;7.11;77.75;99329.84;4865045;29;20535;-80
2022/04/16 02:26:40;;;;;;;14.82;9.48;;;;;;;7.08;78.01;99352.34;4864290;29;20117;-78
2022/04/16 02:29:08;;;;;;;13.73;9.48;;;;;;;6.99;78.15;99366.13;4864712;29;20444;-77
2022/04/16 02:31:37;;;;;;;13.68;9.45;;;;;;;6.94;78.53;99371.25;4864911;29;20081;-78
2022/04/16 02:34:05;;;;;;;12.68;9.00;;;;;;;6.91;78.53;99359.97;4862796;29;20053;-78
2022/04/16 02:36:32;;;;;;;14.00;7.13;;;;;;;6.81;78.82;99361.59;4865350;29;20125;-77
2022/04/16 02:39:00;;;;;;;11.40;7.47;;;;;;;6.74;79.02;99365.84;4865709;29;20053;-79
2022/04/16 02:41:27;;;;;;;7.50;6.28;;;;;;;6.62;78.62;99351.88;4864231;29;20117;-78
2022/04/16 02:43:54;;;;;;;9.05;6.20;;;;;;;6.70;78.68;99379.66;4879165;29;20054;-78
2022/04/16 02:49:07;;;;;;;7.18;4.80;;;;;;;6.61;78.23;99382.16;4863497;29;20088;-79
2022/04/16 02:51:34;;;;;;;4.43;3.90;;;;;;;6.46;78.71;99367.28;4863733;29;20057;-79
2022/04/16 02:54:02;;;;;;;4.10;3.70;;;;;;;6.50;78.18;99388.94;4863507;29;20143;-80
2022/04/16 02:56:29;;;;;;;4.50;3.28;;;;;;;6.30;78.53;99388.66;4863544;29;20061;-79
2022/04/16 02:58:56;;;;;;;4.07;3.40;;;;;;;6.27;78.99;99381.72;4863153;29;20049;-78
2022/04/16 03:01:24;;;;;;;4.68;3.20;;;;;;;6.17;78.32;99391.97;4863349;29;20057;-79
2022/04/16 03:03:51;;;;;;;3.25;2.95;;;;;;;5.81;78.27;99352.56;4862975;29;20057;-79
2022/04/16 03:06:18;;;;;;;3.58;3.03;;;;;;;5.87;78.32;99408.78;4863215;29;20065;-79
2022/04/16 03:08:45;;;;;;;3.00;2.55;;;;;;;5.75;78.67;99387.03;4877625;29;20050;-79
2022/04/16 03:11:12;;;;;;;3.47;2.90;;;;;;;5.69;79.00;99393.84;4861727;29;20113;-79
2022/04/16 03:13:39;;;;;;;3.08;2.78;;;;;;;5.74;79.21;99411.22;4863327;29;20053;-76
2022/04/16 03:18:52;;;;;;;4.60;2.83;;;;;;;5.51;78.38;99386.66;4863896;29;20168;-80
2022/04/16 03:21:20;;;;;;;3.28;2.97;;;;;;;5.50;79.10;99401.31;4876516;29;20057;-80
2022/04/16 03:23:47;;;;;;;3.90;3.05;;;;;;;5.36;78.37;99399.34;4863864;29;20196;-76
2022/04/16 03:26:15;;;;;;;4.68;3.15;;;;;;;5.29;78.58;99430.31;4862350;29;20511;-80
2022/04/16 03:28:42;;;;;;;4.15;3.30;;;;;;;5.21;78.97;99421.53;4862972;29;20057;-78
2022/04/16 03:31:09;;;;;;;4.65;3.28;;;;;;;5.07;78.88;99395.38;4847266;29;20109;-79
2022/04/16 03:33:36;;;;;;;4.35;2.60;;;;;;;5.05;78.50;99406.56;4877852;29;20105;-79
2022/04/16 03:36:04;;;;;;;4.18;2.55;;;;;;;5.06;78.20;99429.03;4865740;29;20053;-78
2022/04/16 03:38:31;;;;;;;4.57;3.03;;;;;;;4.87;78.72;99405.38;4865896;29;20085;-78
2022/04/16 03:40:58;;;;;;;4.90;3.20;;;;;;;4.85;78.81;99414.84;4868022;29;20090;-79
2022/04/16 03:43:26;;;;;;;3.30;2.50;;;;;;;4.79;78.42;99421.59;4876028;29;20057;-80
2022/04/16 03:45:52;;;;;;;4.72;2.83;;;;;;;4.72;78.55;99425.78;4875708;29;20049;-80
2022/04/16 03:48:21;;;;;;;3.90;2.80;;;;;;;4.67;78.93;99438.66;4870856;29;20073;-78
2022/04/16 03:50:48;;;;;;;3.95;2.60;;;;;;;4.57;78.37;99446.19;4867761;29;20065;-80
2022/04/16 03:53:15;;;;;;;2.72;1.92;;;;;;;4.43;78.04;99438.13;4869880;29;20053;-79
2022/04/16 04:01:13;;;;;;;2.30;2.08;;;;;;;4.21;78.15;99437.66;4857224;29;20065;-79
2022/04/16 04:03:40;;;;;;;1.80;1.52;;;;;;;4.11;77.97;99451.22;4866123;29;20058;-77
2022/04/16 04:06:07;;;;;;;2.08;1.98;;;;;;;3.92;78.01;99460.28;4874221;29;20090;-80
2022/04/16 04:08:35;;;;;;;2.47;1.50;;;;;;;3.76;77.85;99445.22;4876826;29;20511;-79
2022/04/16 04:11:03;;;;;;;1.77;1.60;;;;;;;3.73;78.24;99451.19;4872638;29;20061;-81
2022/04/16 04:13:29;;;;;;;2.22;1.85;;;;;;;3.61;78.25;99451.75;4874445;29;20057;-80
2022/04/16 04:15:56;;;;;;;2.22;1.55;;;;;;;3.56;77.88;99461.13;4872961;29;20049;-80
2022/04/16 04:18:24;;;;;;;2.55;2.08;;;;;;;3.34;78.13;99420.97;4873056;29;20061;-81
2022/04/16 04:20:51;;;;;;;1.50;1.40;;;;;;;3.50;78.30;99463.53;4872417;29;20057;-80
2022/04/16 04:23:19;;;;;;;2.90;1.95;;;;;;;3.37;77.93;99483.00;4854051;29;20062;-81
2022/04/16 04:25:46;;;;;;;2.92;1.80;;;;;;;3.25;78.73;99477.53;4855099;29;20068;-80
2022/04/16 04:28:13;;;;;;;2.45;1.80;;;;;;;3.14;78.74;99435.06;4855543;29;20057;-80
2022/04/16 04:30:40;;;;;;;2.30;1.83;;;;;;;3.30;78.67;99454.44;4848003;29;20054;-80
2022/04/16 04:33:07;;;;;;;2.70;1.60;;;;;;;3.24;78.52;99465.44;4850868;29;20057;-79
2022/04/16 04:35:34;;;;;;;1.45;1.35;;;;;;;3.23;78.46;99479.22;4852953;29;20053;-79
2022/04/16 04:38:01;;;;;;;2.28;1.40;;;;;;;3.00;78.50;99443.31;4850443;29;20477;-78
2022/04/16 04:40:29;;;;;;;1.42;1.33;;;;;;;3.10;78.49;99496.06;4850621;29;20057;-78
2022/04/16 04:42:56;;;;;;;2.60;1.83;;;;;;;3.04;78.51;99477.84;4848851;29;20141;-80
2022/04/16 04:45:22;;;;;;;1.50;1.40;;;;;;;3.02;78.72;99488.09;4852082;29;20057;-79
2022/04/16 04:47:49;;;;;;;2.67;1.70;;;;;;;2.99;78.66;99490.63;4848396;29;20144;-78
2022/04/16 04:50:17;;;;;;;1.55;1.10;;;;;;;2.98;78.90;99487.97;4854044;29;20077;-79
2022/04/16 04:52:44;;;;;;;2.22;1.58;;;;;;;2.91;78.72;99475.75;4850951;29;20057;-81
2022/04/16 04:55:13;;;;;;;3.38;2.20;;;;;;;2.98;79.20;99483.69;4843612;29;20045;-79
2022/04/16 04:57:41;;;;;;;1.50;1.40;;;;;;;3.02;78.77;99484.66;4843422;29;20117;-79
2022/04/16 05:00:10;;;;;;;1.40;1.17;;;;;;;2.77;78.70;99476.22;4845433;29;20493;-81
2022/04/16 05:02:45;;;;;;;1.42;1.33;;;;;;;2.75;78.65;99495.06;4851717;29;20053;-82
2022/04/16 05:05:12;;;;;;;1.48;1.30;;;;;;;2.83;78.88;99499.59;4850359;29;20055;-81
2022/04/16 05:07:39;;;;;;;2.00;1.35;;;;;;;2.85;78.63;99492.78;4851782;29;20053;-81
2022/04/16 05:10:07;;;;;;;1.30;1.20;;;;;;;3.01;78.85;99500.94;4846230;29;20084;-77
2022/04/16 05:12:34;;;;;;;1.60;1.50;;;;;;;2.86;78.34;99503.97;4854757;29;20568;-79
2022/04/16 05:15:02;;;;;;;1.10;1.00;;;;;;;2.86;78.24;99502.28;4859619;29;20058;-79
2022/04/16 05:17:36;;;;;;;1.80;1.50;;;;;;;2.76;78.74;99510.59;4860493;29;20057;-80
2022/04/16 05:20:06;;;;;;;1.58;1.30;;;;;;;2.76;78.71;99494.25;4849715;29;20054;-81
2022/04/16 05:22:33;;;;;;;1.13;1.10;;;;;;;2.85;78.54;99523.75;4859928;29;20057;-78
2022/04/16 06:40:12;;;;;;;0.90;0.90;;;;;;;3.55;74.91;99538.53;5089637;27;20824;-79
2022/04/16 06:42:40;;;;;;;1.40;1.20;;;;;;;3.52;75.71;99561.72;5061806;28;20102;-80
2022/04/16 06:45:10;;;;;;;1.35;0.90;;;;;;;3.46;75.42;99555.56;5061264;28;20068;-81
2022/04/16 06:47:38;;;;;;;1.00;1.00;;;;;;;3.56;76.22;99560.97;5062905;28;20135;-79
2022/04/16 06:50:06;;;;;;;3.20;1.10;;;;;;;3.56;75.22;99556.69;5059534;28;20053;-78
2022/04/16 06:52:34;;;;;;;1.05;1.05;;;;;;;3.46;75.18;99545.25;5058028;28;20136;-78
2022/04/16 06:55:03;;;;;;;1.42;0.82;;;;;;;3.63;75.12;99558.56;5059149;28;20072;-79
2022/04/16 06:57:30;;;;;;;0.60;0.60;;;;;;;3.58;74.51;99577.38;5058696;28;20052;-78
2022/04/16 07:00:07;;;;;;;0.55;0.55;;;;;;;3.45;74.65;99558.97;5059274;28;20049;-78
2022/04/16 07:02:34;;;;;;;0.57;0.57;;;;;;;3.67;74.90;99582.78;5060576;28;20066;-78
2022/04/16 07:05:02;;;;;;;1.48;0.60;;;;;;;3.66;74.40;99568.16;5064188;28;20049;-77
2022/04/16 07:07:30;;;;;;;0.80;0.80;;;;;;;3.81;73.74;99570.25;5058504;28;20128;-77
2022/04/16 07:09:58;;;;;;;0.70;0.70;;;;;;;3.60;73.86;99574.00;5057424;28;20076;-78
2022/04/16 07:12:25;;;;;;;0.90;0.90;;;;;;;3.49;74.10;99560.81;5059432;28;20135;-77
2022/04/16 07:14:53;;;;;;;0.70;0.70;;;;;;;3.51;74.48;99588.38;5059328;28;20053;-79
2022/04/16 07:17:21;;;;;;;0.93;0.60;;;;;;;3.59;74.20;99586.88;5082470;28;20057;-77
2022/04/16 07:19:48;;;;;;;0.70;0.70;;;;;;;3.42;74.07;99578.66;5079214;28;20049;-77
2022/04/16 07:22:19;;;;;;;0.85;0.80;;;;;;;3.30;73.80;99571.47;5089099;28;20048;-78
2022/04/16 07:24:48;;;;;;;0.70;0.70;;;;;;;3.24;74.04;99592.81;5089580;28;20562;-76
2022/04/16 07:27:16;;;;;;;1.63;0.80;;;;;;;3.18;74.31;99565.94;5104774;28;20099;-77
2022/04/16 07:29:43;;;;;;;0.85;0.85;;;;;;;3.40;74.59;99570.00;5098355;28;20050;-76
2022/04/16 07:32:10;;;;;;;1.30;1.20;;;;;;;3.63;73.74;99578.38;5106953;28;20049;-79
2022/04/16 07:34:37;;;;;;;1.05;0.95;;;;;;;3.78;73.67;99575.31;5078728;28;20049;-78
2022/04/16 07:37:05;;;;;;;0.98;0.98;;;;;;;3.74;72.88;99571.78;5067761;28;20059;-78
2022/04/16 07:39:33;;;;;;;1.40;0.93;;;;;;;3.72;73.10;99570.84;5056432;28;20081;-77
2022/04/16 07:42:01;;;;;;;1.33;1.23;;;;;;;3.80;73.34;99594.31;5035543;28;20052;-80
2022/04/16 07:44:27;;;;;;;0.80;0.80;;;;;;;3.83;72.90;99600.47;5035186;28;20080;-82
2022/04/16 07:46:55;;;;;;;0.93;0.93;;;;;;;3.60;73.00;99586.06;5033813;28;20050;-79
2022/04/16 07:49:28;;;;;;;0.80;0.80;;;;;;;3.58;73.49;99611.84;5067173;28;20061;-81
2022/04/16 07:51:57;;;;;;;1.05;0.98;;;;;;;3.41;73.97;99597.59;5038760;28;20510;-79
2022/04/16 07:54:24;;;;;;;0.77;0.73;;;;;;;3.40;73.19;99601.88;5043785;28;20467;-78
2022/04/16 07:56:51;;;;;;;1.13;0.98;;;;;;;3.39;73.58;99615.59;5045332;28;20140;-80
2022/04/16 07:59:18;;;;;;;0.88;0.88;;;;;;;3.45;73.22;99602.88;5055491;28;20048;-79
2022/04/16 08:01:45;;;;;;;0.77;0.77;;;;;;;3.36;73.43;99571.63;5051903;28;20049;-79
2022/04/16 08:04:12;;;;;;;1.02;0.90;;;;;;;3.43;73.50;99595.91;5024816;28;20045;-80
2022/04/16 08:06:39;;;;;;;1.13;0.90;;;;;;;3.57;73.38;99617.84;5037323;28;20160;-79
2022/04/16 08:09:07;;;;;;;1.17;1.08;;;;;;;3.65;73.01;99652.50;5033486;28;20100;-80
2022/04/16 08:11:33;;;;;;;1.23;1.13;;;;;;;3.47;73.05;99611.53;5033425;28;20059;-81
2022/04/16 08:14:01;;;;;;;0.80;0.80;;;;;;;3.54;73.49;99642.72;5036931;28;20072;-82
2022/04/16 08:16:29;;;;;;;0.85;0.85;;;;;;;3.57;73.67;99632.44;5053983;28;20049;-78
2022/04/16 08:19:00;;;;;;;0.90;0.90;;;;;;;3.38;73.37;99607.84;5053092;28;20048;-82
2022/04/16 08:21:34;;;;;;;1.27;1.17;;;;;;;3.42;73.49;99622.56;5040630;28;20057;-81
2022/04/16 08:24:13;;;;;;;1.05;0.90;;;;;;;3.37;72.87;99648.25;5045069;28;20186;-82
2022/04/16 08:26:41;;;;;;;1.80;1.40;;;;;;;3.41;73.96;99650.09;5044975;28;20519;-78
2022/04/16 08:29:13;;;;;;;1.38;1.23;;;;;;;3.54;74.01;99634.97;5075621;28;20048;-83
2022/04/16 08:31:48;;;;;;;1.13;1.02;;;;;;;3.64;73.38;99643.00;5043698;28;20469;-82
2022/04/16 08:34:35;;;;;;;1.38;1.27;;;;;;;3.56;73.13;99602.31;5045137;28;20053;-80
2022/04/16 08:37:02;;;;;;;2.33;1.10;;;;;;;3.90;73.09;99650.59;5044939;28;20049;-81
2022/04/16 08:39:40;;;;;;;1.02;0.90;;;;;;;3.67;72.40;99649.97;5042277;28;20510;-81
2022/04/16 08:42:08;;;;;;;1.90;1.10;;;;;;;3.60;73.38;99636.00;5043739;28;20482;-84
2022/04/16 08:44:38;;;;;;;1.40;1.15;;;;;;;3.71;73.14;99658.69;5045696;28;20053;-78
2022/04/16 08:47:09;;;;;;;1.45;1.17;;;;;;;3.53;73.58;99633.19;5048389;28;20510;-80
2022/04/16 08:49:37;;;;;;;1.45;1.35;;;;;;;3.74;74.18;99662.19;5058418;28;20099;-80
2022/04/16 08:52:04;;;;;;;1.02;1.02;;;;;;;3.52;73.38;99646.94;5034148;28;20510;-80
2022/04/16 08:54:31;;;;;;;1.70;1.60;;;;;;;3.48;74.28;99688.19;5032464;28;20441;-80
2022/04/16 08:56:59;;;;;;;1.38;1.00;;;;;;;3.19;73.67;99617.63;5033741;28;20053;-80
2022/04/16 08:59:32;;;;;;;1.30;1.20;;;;;;;3.45;73.63;99667.44;5033618;28;20121;-79
2022/04/16 09:01:59;;;;;;;1.13;1.02;;;;;;;3.19;73.91;99630.53;5035279;28;20115;-78
2022/04/16 09:05:00;;;;;;;2.15;1.30;;;;;;;3.37;73.62;99680.94;5035167;28;20050;-79
2022/04/16 09:07:28;;;;;;;1.67;1.23;;;;;;;3.17;73.97;99659.72;5033564;28;20139;-82
2022/04/16 09:10:07;;;;;;;1.50;1.20;;;;;;;3.35;73.57;99682.63;5034298;28;20117;-81
2022/04/16 09:12:37;;;;;;;1.27;1.17;;;;;;;3.37;73.89;99684.41;5033353;28;20063;-80
2022/04/16 09:15:06;;;;;;;1.10;1.00;;;;;;;3.37;73.63;99701.63;5033583;28;20057;-78
2022/04/16 09:17:38;;;;;;;1.10;1.00;;;;;;;3.30;74.06;99690.22;5033545;28;20057;-81
2022/04/16 09:20:17;;;;;;;1.65;1.38;;;;;;;3.36;74.14;99712.78;5033423;28;20149;-82
2022/04/16 09:22:49;;;;;;;1.38;1.20;;;;;;;3.36;73.85;99695.59;5033662;28;20095;-79
2022/04/16 09:25:18;;;;;;;1.23;1.13;;;;;;;3.31;73.70;99722.94;5031800;28;20079;-81
2022/04/16 09:27:46;;;;;;;1.73;1.25;;;;;;;3.30;73.72;99707.44;5032889;28;20148;-81
2022/04/16 09:30:23;;;;;;;2.53;1.35;;;;;;;3.20;73.65;99703.69;5032728;28;20056;-80
2022/04/16 09:32:52;;;;;;;1.15;1.10;;;;;;;3.34;73.96;99717.03;5047938;28;20045;-77
2022/04/16 09:35:25;;;;;;;1.40;1.30;;;;;;;3.32;73.34;99709.22;5032378;28;20472;-78
2022/04/16 09:38:12;;;;;;;0.80;0.80;;;;;;;3.30;73.38;99717.75;5036102;28;20048;-82
2022/04/16 09:40:39;;;;;;;1.52;1.02;;;;;;;3.24;73.50;99719.31;5053160;28;20135;-81
2022/04/16 09:43:07;;;;;;;2.47;1.50;;;;;;;3.16;73.66;99715.63;5052423;28;20144;-78
2022/04/16 09:45:38;;;;;;;2.33;1.42;;;;;;;3.19;74.06;99707.97;5052683;28;20460;-84
2022/04/16 09:48:44;;;;;;;1.00;0.95;;;;;;;2.75;73.27;99670.47;5056545;28;20076;-81
2022/04/16 09:52:06;;;;;;;1.15;1.00;;;;;;;3.10;73.44;99720.63;5035953;28;20052;-84
2022/04/16 09:55:20;;;;;;;1.00;0.98;;;;;;;3.16;73.90;99720.81;5078846;28;20127;-79
2022/04/16 09:58:40;;;;;;;2.10;1.40;;;;;;;2.79;73.74;99649.97;5028068;28;20096;-79
2022/04/16 10:02:33;;;;;;;1.02;1.02;;;;;;;3.20;73.76;99732.06;5046170;28;20049;-80
2022/04/16 10:09:53;;;;;;;1.63;1.33;;;;;;;3.23;74.03;99722.72;5066106;28;20067;-79
2022/04/16 10:13:17;;;;;;;1.90;1.30;;;;;;;3.27;73.56;99739.22;5067887;28;20143;-79
2022/04/16 10:17:32;;;;;;;1.42;1.33;;;;;;;3.36;73.44;99718.81;5020624;28;20139;-80
2022/04/16 10:21:31;;;;;;;1.30;1.20;;;;;;;3.31;73.30;99745.31;5062334;28;20048;-81
2022/04/16 10:24:51;;;;;;;1.70;1.60;;;;;;;3.32;73.33;99747.94;5068105;28;20040;-78
2022/04/16 10:28:03;;;;;;;1.00;0.98;;;;;;;3.30;73.46;99754.78;5089338;28;20794;-83
2022/04/16 10:30:55;;;;;;;1.40;1.30;;;;;;;3.35;73.13;99758.38;5092643;28;20235;-81
2022/04/16 10:33:29;;;;;;;2.03;1.60;;;;;;;3.12;73.25;99723.22;5095375;28;20101;-78
2022/04/16 10:35:58;;;;;;;2.72;1.23;;;;;;;3.41;72.68;99768.00;5093576;28;20048;-79
2022/04/16 10:38:31;;;;;;;1.58;1.38;;;;;;;3.38;72.38;99760.19;5091749;28;20568;-79
2022/04/16 10:41:14;;;;;;;1.45;1.35;;;;;;;3.21;72.34;99763.13;5092154;28;20505;-82
2022/04/16 10:44:21;;;;;;;1.58;1.48;;;;;;;3.14;72.78;99731.88;5074328;28;20065;-81
2022/04/16 10:47:46;;;;;;;1.35;1.25;;;;;;;2.88;72.98;99680.34;5083415;28;20151;-81
2022/04/16 10:55:11;;;;;;;;;;;;;;;3.34;73.31;99802.22;5095188;28;20117;-82
2022/04/16 10:59:25;;;;;;;1.60;1.50;;;;;;;2.92;73.40;99728.63;5090736;28;19924;-80
2022/04/16 11:03:11;;;;;;;1.25;1.15;;;;;;;3.11;72.79;99793.75;5003498;28;20045;-80
2022/04/16 11:06:51;;;;;;;2.63;1.40;;;;;;;3.15;73.12;99793.91;4959071;28;20188;-81
2022/04/16 11:10:23;;;;;;;2.22;1.30;;;;;;;3.14;73.20;99788.66;4994452;28;20077;-80
2022/04/16 11:13:50;;;;;;;2.72;2.13;;;;;;;3.21;73.91;99786.34;4989521;28;20050;-79
2022/04/16 11:24:14;;;;;;;1.60;1.50;;;;;;;2.92;73.32;99808.63;4979484;28;20102;-78
2022/04/16 11:38:12;;;;;;;1.48;1.38;;;;;;;3.08;73.24;99834.13;4928013;28;20132;-80
2022/04/16 11:40:40;;;;;;;2.45;1.80;;;;;;;3.09;73.21;99858.22;4975032;28;20043;-78
2022/04/16 11:43:08;;;;;;;1.50;1.40;;;;;;;3.07;73.31;99831.47;5013989;28;20479;-78
2022/04/16 11:45:35;;;;;;;1.48;1.38;;;;;;;2.98;72.83;99803.66;5056543;28;20155;-78
2022/04/16 11:48:03;;;;;;;2.05;1.30;;;;;;;3.24;72.78;99839.78;5057992;28;20056;-80
2022/04/16 11:50:44;;;;;;;2.17;1.45;;;;;;;3.16;72.78;99855.03;5040902;28;20075;-78
2022/04/16 11:53:31;;;;;;;1.40;1.30;;;;;;;3.07;72.99;99846.97;5076338;28;20076;-81
2022/04/16 11:56:38;;;;;;;1.50;1.30;;;;;;;2.45;72.75;99775.25;5070136;28;20455;-80
2022/04/16 12:00:17;;;;;;;1.92;1.60;;;;;;;2.89;72.96;99852.41;5063359;28;20560;-79
2022/04/16 12:03:45;;;;;;;2.47;1.38;;;;;;;2.90;73.02;99832.63;5013855;28;20046;-79
2022/04/16 12:06:54;;;;;;;1.58;1.42;;;;;;;2.44;73.03;99767.47;5013580;28;20050;-78
2022/04/16 12:10:07;;;;;;;1.85;1.50;;;;;;;2.46;73.03;99761.53;5013515;28;20058;-79
2022/04/16 12:13:12;;;;;;;2.15;1.30;;;;;;;2.46;73.14;99769.25;4965372;28;20060;-79
2022/04/16 12:16:15;;;;;;;1.27;1.10;;;;;;;2.46;73.16;99826.00;5002945;28;20049;-79
2022/04/16 12:23:10;;;;;;;1.63;1.30;;;;;;;2.39;72.88;99818.00;5013039;28;20152;-82
2022/04/16 12:29:30;;;;;;;1.40;1.30;;;;;;;2.58;74.21;99850.44;4962358;28;20069;-79
2022/04/16 12:31:58;;;;;;;1.65;1.33;;;;;;;2.42;74.53;99824.13;4996307;28;20058;-78
2022/04/16 12:34:26;;;;;;;1.88;1.20;;;;;;;2.90;74.20;99904.88;5012492;28;20057;-81
2022/04/16 12:36:53;;;;;;;1.40;1.30;;;;;;;2.75;74.08;99893.19;5019152;28;20068;-78
2022/04/16 12:39:22;;;;;;;2.88;1.60;;;;;;;2.79;74.57;99897.63;5075480;28;20501;-79
2022/04/16 12:41:50;;;;;;;1.40;1.17;;;;;;;2.77;74.78;99888.94;5055648;28;20049;-79
2022/04/16 12:44:18;;;;;;;1.88;1.38;;;;;;;2.70;74.87;99902.47;5074030;28;20087;-83
2022/04/16 12:46:45;;;;;;;1.80;1.50;;;;;;;2.51;75.02;99890.63;5073959;28;20570;-82
2022/04/16 12:49:12;;;;;;;2.20;1.48;;;;;;;2.54;74.81;99871.78;5073996;28;20049;-80
2022/04/16 12:51:38;;;;;;;2.28;1.40;;;;;;;2.51;74.58;99851.94;5056072;28;20064;-80
2022/04/16 12:54:06;;;;;;;1.25;1.15;;;;;;;2.60;74.53;99903.88;5073680;28;20528;-81
2022/04/16 12:56:32;;;;;;;1.85;1.40;;;;;;;2.59;74.86;99932.16;5073335;28;20087;-80
2022/04/16 12:59:00;;;;;;;2.47;1.50;;;;;;;2.53;74.96;99913.88;5073467;28;20053;-80
2022/04/16 13:01:27;;;;;;;1.88;1.55;;;;;;;2.60;75.45;99903.88;5073528;28;20055;-79
2022/04/16 13:03:55;;;;;;;1.70;1.60;;;;;;;2.63;75.20;99928.88;5073931;28;20063;-78
2022/04/16 13:06:26;;;;;;;1.85;1.60;;;;;;;2.30;75.30;99867.50;5073560;28;20121;-77
2022/04/16 13:08:54;;;;;;;3.40;1.60;;;;;;;2.54;75.28;99884.69;5056367;28;20053;-78
2022/04/16 13:11:22;;;;;;;1.33;1.23;;;;;;;2.76;75.58;99918.16;5072713;28;20513;-83
2022/04/16 13:13:49;;;;;;;1.60;1.50;;;;;;;2.75;75.39;99920.69;5055049;28;20044;-79
2022/04/16 13:16:17;;;;;;;1.77;1.60;;;;;;;2.67;75.79;99917.84;5054436;28;20091;-82
2022/04/16 13:18:44;;;;;;;1.80;1.55;;;;;;;2.51;75.99;99918.09;5073071;28;20083;-78
2022/04/16 13:21:11;;;;;;;1.17;1.10;;;;;;;2.60;75.84;99951.97;5073006;28;20048;-80
2022/04/16 13:23:38;;;;;;;1.73;1.60;;;;;;;2.58;76.72;99954.50;5072822;28;20048;-82
2022/04/16 13:26:04;;;;;;;1.60;1.45;;;;;;;2.45;76.38;99921.31;5073222;28;20143;-81
2022/04/16 13:28:31;;;;;;;2.72;1.80;;;;;;;2.44;76.82;99933.34;5073338;28;20122;-77
2022/04/16 13:30:59;;;;;;;5.53;1.85;;;;;;;2.38;77.31;99927.09;5073069;28;20052;-79
2022/04/16 13:33:25;;;;;;;1.77;1.67;;;;;;;2.23;77.17;99904.19;5073200;28;20079;-80
2022/04/16 13:35:52;;;;;;;3.50;1.58;;;;;;;2.31;77.20;99918.25;5072479;28;20121;-81
2022/04/16 13:38:23;;;;;;;1.80;1.65;;;;;;;2.09;77.54;99888.22;5072542;28;20143;-78
2022/04/16 13:43:39;;;;;;;2.88;1.63;;;;;;;2.17;77.51;99910.03;5114322;28;20051;-79
2022/04/16 13:46:12;;;;;;;2.13;1.45;;;;;;;2.49;77.68;99933.50;5095911;28;20046;-78
2022/04/16 13:48:39;;;;;;;2.15;1.63;;;;;;;2.40;77.69;99940.91;5104168;28;20611;-81
2022/04/16 13:51:06;;;;;;;2.75;1.42;;;;;;;2.46;77.39;99948.88;5093459;28;20058;-80
2022/04/16 13:53:33;;;;;;;2.15;1.67;;;;;;;2.42;77.02;99931.53;5094354;28;20108;-81
2022/04/16 13:56:00;;;;;;;3.40;2.00;;;;;;;2.43;77.50;99923.88;5094313;28;20040;-80
2022/04/16 13:58:27;;;;;;;2.97;2.17;;;;;;;2.61;77.54;99951.16;5093327;28;20043;-79
2022/04/16 14:00:54;;;;;;;2.60;1.90;;;;;;;2.56;77.39;99926.88;5097863;28;20058;-82
2022/04/16 14:03:21;;;;;;;2.10;1.90;;;;;;;2.67;77.23;99953.97;5113187;28;20056;-80
2022/04/16 14:05:48;;;;;;;2.58;1.70;;;;;;;2.56;77.30;99935.53;5112859;28;20055;-82
2022/04/16 14:08:18;;;;;;;2.40;1.90;;;;;;;2.50;77.13;99932.72;5106157;28;20048;-80
2022/04/16 14:11:21;;;;;;;2.47;2.28;;;;;;;2.62;77.56;99963.22;5092771;28;20056;-80
2022/04/16 14:14:42;;;;;;;2.10;1.80;;;;;;;2.23;77.30;99891.31;5083201;28;20048;-79
2022/04/16 14:18:00;;;;;;;;;;;;;;;;;;;;;
2022/04/16 14:20:56;;;;;;;2.00;1.88;;;;;;;2.26;77.50;99932.69;5064265;28;20074;-79